Yoshu Maru No.5 — JG5510 — position and weather

sailwx.info

Track history (hours):
 
Tides and Currents Weather Stations Pressure Air Temp Water Temp Dewpoint Dewpoint Depression Visibility Wind Speed Wind Dir Waves Ship Positions

Yoshu Maru No.5

Last reported at 2018-Apr-22 14:21 UTC. Time now 2018-Apr-23 04:00 UTC.
Position N 33°17' E 135°26'.

Length 110 m; draft 7.2 m.

Type: Cargo ship. MMSI: 431400833.

Date/timePositionNaut miles runAvg speedWind from/ knotsBaromVisibWave heightAir tempDewpointWater temp
2018-Apr-22 14:21N 33°17' E 135°26'3212.2
2018-Apr-22 11:41N 33°10' E 134°48'312.0
2018-Apr-22 11:28N 33°10' E 134°45'612.0
2018-Apr-22 10:58N 33°09' E 134°38'1011.7
2018-Apr-22 10:09N 33°07' E 134°27'12110.4
2018-Apr-21 22:31N 33°17' E 132°02'213.4
2018-Apr-21 22:23N 33°18' E 132°01'612.6
2018-Apr-21 21:56N 33°23' E 131°58'613.3
2018-Apr-21 21:30N 33°29' E 131°56'813.4
2018-Apr-21 20:56N 33°36' E 131°53'713.1
2018-Apr-21 20:24N 33°42' E 131°51'512.8
2018-Apr-21 20:00N 33°47' E 131°49'612.6
2018-Apr-21 19:30N 33°53' E 131°46'612.2
2018-Apr-21 19:00N 33°59' E 131°45'5 9.0
2018-Apr-21 18:30N 34°03' E 131°47'0 0.0
2018-Apr-21 17:52N 34°03' E 131°47'0 0.0
2018-Apr-21 16:46N 34°03' E 131°47'0 0.0
2018-Apr-21 16:28N 34°03' E 131°47'0 0.0
2018-Apr-21 15:58N 34°03' E 131°47'0 0.0
2018-Apr-21 15:28N 34°03' E 131°47'0 0.0
2018-Apr-21 14:58N 34°03' E 131°47'0 0.0
2018-Apr-21 14:28N 34°03' E 131°47'0 0.0
2018-Apr-21 13:46N 34°03' E 131°47'0 0.0
2018-Apr-21 13:28N 34°03' E 131°47'0 0.0
2018-Apr-21 12:52N 34°03' E 131°47'0 0.0
2018-Apr-21 12:22N 34°03' E 131°47'0 0.0
2018-Apr-21 11:52N 34°03' E 131°47'0 0.0
2018-Apr-21 11:28N 34°03' E 131°47'0 0.0
2018-Apr-21 10:46N 34°03' E 131°47'0 0.0
2018-Apr-21 10:04N 34°03' E 131°47'0 0.0
2018-Apr-21 09:52N 34°03' E 131°47'0 0.1
2018-Apr-21 09:30N 34°03' E 131°47'1 2.7
2018-Apr-21 09:00N 34°02' E 131°46'1 2.7
2018-Apr-21 08:30N 34°01' E 131°45'1 0.1
2018-Apr-21 01:44N 34°01' E 131°44'2 7.0
2018-Apr-21 01:26N 33°59' E 131°45'713.8
2018-Apr-21 00:56N 33°52' E 131°48'614.2
2018-Apr-21 00:30N 33°47' E 131°51'714.3
2018-Apr-21 00:00N 33°40' E 131°53'713.9
2018-Apr-20 23:30N 33°33' E 131°54'713.9
2018-Apr-20 23:00N 33°26' E 131°56'714.1
2018-Apr-20 22:29N 33°19' E 131°59'1013.3
2018-Apr-20 21:45N 33°11' E 132°06'713.4
2018-Apr-20 21:14N 33°06' E 132°11'513.0
2018-Apr-20 20:51N 33°02' E 132°15'513.1
2018-Apr-20 20:29N 32°58' E 132°18'26312.3
2018-Apr-19 23:10N 34°18' E 137°20'413.4
2018-Apr-19 22:53N 34°19' E 137°24'613.1
2018-Apr-19 22:27N 34°20' E 137°31'2613.0
2018-Apr-19 20:27N 34°27' E 138°01'912.8
2018-Apr-19 19:47N 34°30' E 138°11'513.0
2018-Apr-19 19:25N 34°30' E 138°17'612.8
2018-Apr-19 18:58N 34°30' E 138°23'613.0
2018-Apr-19 18:29N 34°31' E 138°31'1012.5
2018-Apr-19 17:42N 34°32' E 138°43'312.6
2018-Apr-19 17:27N 34°32' E 138°47'612.3
2018-Apr-19 17:00N 34°32' E 138°54'711.6
2018-Apr-19 16:21N 34°36' E 139°01'412.2
2018-Apr-19 16:00N 34°38' E 139°05'811.9
2018-Apr-19 15:22N 34°44' E 139°12'512.4
2018-Apr-19 14:59N 34°47' E 139°16'612.3
2018-Apr-19 14:28N 34°52' E 139°21'611.8
2018-Apr-19 13:57N 34°56' E 139°27'511.8
2018-Apr-19 13:30N 34°59' E 139°32'612.5
2018-Apr-19 13:00N 35°03' E 139°37'712.9
2018-Apr-19 12:30N 35°08' E 139°43'612.6
2018-Apr-19 12:00N 35°13' E 139°47'611.8
2018-Apr-19 11:30N 35°19' E 139°44'612.4
2018-Apr-19 11:01N 35°25' E 139°43'612.7
2018-Apr-19 10:30N 35°29' E 139°49'4 8.7
2018-Apr-19 10:01N 35°30' E 139°44'0 0.1
2018-Apr-19 09:28N 35°30' E 139°44'0 0.0
2018-Apr-19 08:58N 35°30' E 139°44'0 0.0
2018-Apr-19 08:28N 35°30' E 139°44'0 0.0
2018-Apr-19 07:58N 35°30' E 139°44'0 0.0
2018-Apr-19 07:28N 35°30' E 139°44'0 0.0
2018-Apr-19 06:58N 35°30' E 139°44'0 0.0
2018-Apr-19 06:28N 35°30' E 139°44'0 0.0
2018-Apr-19 05:55N 35°30' E 139°44'0 0.0
2018-Apr-19 05:28N 35°30' E 139°44'0 0.0
2018-Apr-19 04:58N 35°30' E 139°44'0 0.0
2018-Apr-19 04:28N 35°30' E 139°44'0 0.0
2018-Apr-19 03:58N 35°30' E 139°44'0 0.0
2018-Apr-19 03:28N 35°30' E 139°44'0 0.0
2018-Apr-19 02:58N 35°30' E 139°44'0 0.0
2018-Apr-19 02:28N 35°30' E 139°44'0 0.0
2018-Apr-19 01:58N 35°30' E 139°44'0 0.0
2018-Apr-19 01:28N 35°30' E 139°44'0 0.0
2018-Apr-19 00:58N 35°30' E 139°44'0 0.0
2018-Apr-19 00:28N 35°30' E 139°44'0 0.0
2018-Apr-18 23:58N 35°30' E 139°44'0 0.0
2018-Apr-18 23:28N 35°30' E 139°44'0 0.7
2018-Apr-18 23:00N 35°30' E 139°44'3 6.2
2018-Apr-18 22:30N 35°27' E 139°44'510.1
2018-Apr-18 22:00N 35°22' E 139°45'5 9.7
2018-Apr-18 21:31N 35°17' E 139°46'510.6
2018-Apr-18 21:01N 35°12' E 139°47'510.6
2018-Apr-18 20:30N 35°06' E 139°46'5 9.7
2018-Apr-18 20:01N 35°03' E 139°42'5 9.9
2018-Apr-18 19:30N 34°59' E 139°39'5 9.7
2018-Apr-18 19:00N 34°55' E 139°35'3 5.5
2018-Apr-18 18:30N 34°53' E 139°37'3 6.6
2018-Apr-18 17:59N 34°49' E 139°36'4 7.9
2018-Apr-18 17:28N 34°50' E 139°31'4 9.0
2018-Apr-18 17:00N 34°50' E 139°26'5 9.6
2018-Apr-18 16:27N 34°50' E 139°20'510.1
2018-Apr-18 15:59N 34°46' E 139°16'710.3
2018-Apr-18 15:18N 34°41' E 139°10'310.0
2018-Apr-18 14:59N 34°39' E 139°07'510.0
2018-Apr-18 14:29N 34°36' E 139°03'5 9.7
2018-Apr-18 14:01N 34°32' E 138°59'4 8.7
2018-Apr-18 13:30N 34°31' E 138°54'5 9.0
2018-Apr-18 12:59N 34°31' E 138°48'611.3
2018-Apr-18 12:28N 34°31' E 138°41'611.6
2018-Apr-18 11:58N 34°31' E 138°34'911.2
2018-Apr-18 11:11N 34°31' E 138°23'211.1
2018-Apr-18 11:00N 34°31' E 138°21'510.9
2018-Apr-18 10:30N 34°31' E 138°14'31510.2
2018-Apr-17 03:37N 33°10' E 132°07'814.7
2018-Apr-17 03:06N 33°16' E 132°02'216.3
2018-Apr-17 02:57N 33°18' E 131°60'714.1
2018-Apr-17 02:29N 33°25' E 131°57'613.1
2018-Apr-17 02:00N 33°31' E 131°55'612.3
2018-Apr-17 01:30N 33°36' E 131°51'612.0
2018-Apr-17 01:00N 33°41' E 131°49'612.1
2018-Apr-17 00:31N 33°47' E 131°47'612.0
2018-Apr-17 00:01N 33°53' E 131°46'611.8
2018-Apr-16 23:29N 33°59' E 131°45'2 3.0
2018-Apr-16 22:57N 34°01' E 131°45'0 0.0
2018-Apr-16 22:30N 34°01' E 131°45'0 0.0
2018-Apr-16 21:54N 34°01' E 131°45'0 0.0
2018-Apr-16 21:30N 34°01' E 131°45'0 0.0
2018-Apr-16 21:00N 34°01' E 131°45'0 0.0
2018-Apr-16 20:00N 34°01' E 131°45'0 0.4
2018-Apr-16 19:31N 34°01' E 131°45'3 5.3
2018-Apr-16 19:00N 34°03' E 131°47'0 0.0
2018-Apr-16 17:00N 34°03' E 131°47'0 0.0
2018-Apr-16 16:30N 34°03' E 131°47'0 0.0
2018-Apr-16 16:00N 34°03' E 131°47'0 0.0
2018-Apr-16 15:24N 34°03' E 131°47'0 0.0
2018-Apr-16 14:54N 34°03' E 131°47'0 0.0
2018-Apr-16 14:30N 34°03' E 131°47'0 0.0
2018-Apr-16 14:00N 34°03' E 131°47'0 0.0
2018-Apr-16 13:18N 34°03' E 131°47'0 0.0
2018-Apr-16 13:00N 34°03' E 131°47'0 0.0
2018-Apr-16 12:30N 34°03' E 131°47'0 0.0
2018-Apr-16 12:00N 34°03' E 131°47'0 0.0
2018-Apr-16 11:18N 34°03' E 131°47'0 0.0
2018-Apr-16 11:00N 34°03' E 131°47'0 0.0
2018-Apr-16 10:30N 34°03' E 131°47'0 0.0
2018-Apr-16 09:54N 34°03' E 131°47'0 0.0
2018-Apr-16 09:30N 34°03' E 131°47'0 0.0
2018-Apr-16 09:00N 34°03' E 131°47'0 0.0
2018-Apr-16 08:30N 34°03' E 131°47'0 0.4
2018-Apr-16 08:00N 34°03' E 131°47'4 8.0
2018-Apr-16 07:30N 33°59' E 131°45'611.9
2018-Apr-16 07:00N 33°54' E 131°45'612.0
2018-Apr-16 06:30N 33°48' E 131°46'4 8.6
2018-Apr-16 06:00N 33°46' E 131°41'612.3
2018-Apr-16 05:30N 33°48' E 131°33'612.4
2018-Apr-16 05:00N 33°49' E 131°26'612.6
2018-Apr-16 04:30N 33°50' E 131°19'612.4
2018-Apr-16 04:00N 33°52' E 131°11'612.5
2018-Apr-16 03:29N 33°55' E 131°05'611.5
2018-Apr-16 03:00N 33°58' E 130°59'4 8.4
2018-Apr-16 02:30N 33°55' E 130°56'4 7.4
2018-Apr-16 02:00N 33°57' E 130°52'612.2
2018-Apr-16 01:30N 34°02' E 130°48'713.3
2018-Apr-16 01:01N 34°01' E 130°40'713.8
2018-Apr-16 00:30N 33°59' E 130°33'713.7
2018-Apr-16 00:00N 33°56' E 130°25'613.0
2018-Apr-15 23:30N 33°51' E 130°20'713.7
2018-Apr-15 23:00N 33°45' E 130°17'611.4
2018-Apr-15 22:30N 33°39' E 130°18'2 4.6
2018-Apr-15 22:00N 33°38' E 130°20'0 0.0
2018-Apr-15 21:30N 33°38' E 130°20'0 0.0
2018-Apr-15 21:00N 33°38' E 130°20'0 0.0
2018-Apr-15 20:30N 33°38' E 130°20'0 0.0
2018-Apr-15 20:00N 33°38' E 130°20'0 0.0
2018-Apr-15 19:30N 33°38' E 130°20'0 0.1
2018-Apr-15 19:00N 33°38' E 130°20'0 0.1
2018-Apr-15 18:30N 33°38' E 130°20'0 0.0
2018-Apr-15 18:00N 33°38' E 130°20'0 0.1
2018-Apr-15 17:30N 33°38' E 130°20'0 0.0
2018-Apr-15 17:00N 33°38' E 130°20'0 0.0
2018-Apr-15 16:30N 33°38' E 130°20'0 0.0
2018-Apr-15 16:00N 33°38' E 130°20'0 0.0
2018-Apr-15 15:30N 33°38' E 130°20'0 0.0
2018-Apr-15 15:00N 33°38' E 130°20'0 0.0
2018-Apr-15 14:30N 33°38' E 130°20'0 0.1
2018-Apr-15 14:00N 33°38' E 130°20'0 0.0
2018-Apr-15 13:30N 33°38' E 130°20'0 0.0
2018-Apr-15 13:00N 33°38' E 130°20'0 0.0
2018-Apr-15 12:30N 33°38' E 130°20'0 0.1
2018-Apr-15 12:00N 33°38' E 130°20'0 0.0
2018-Apr-15 11:30N 33°38' E 130°20'0 0.0
2018-Apr-15 11:00N 33°38' E 130°20'0 0.0
2018-Apr-15 10:27N 33°38' E 130°20'0 0.0
2018-Apr-15 10:00N 33°38' E 130°20'0 0.0
2018-Apr-15 09:30N 33°38' E 130°20'0 0.0
2018-Apr-15 09:00N 33°38' E 130°20'0 0.0
2018-Apr-15 08:30N 33°38' E 130°20'0 0.0
2018-Apr-15 08:00N 33°38' E 130°20'0 0.0
2018-Apr-15 07:27N 33°38' E 130°20'0 0.0
2018-Apr-15 07:00N 33°38' E 130°20'0 0.0
2018-Apr-15 06:24N 33°38' E 130°20'0 0.0
2018-Apr-15 06:00N 33°38' E 130°20'0 0.0
2018-Apr-15 05:30N 33°38' E 130°20'0 0.1
2018-Apr-15 05:00N 33°38' E 130°20'0 0.1
2018-Apr-15 04:30N 33°38' E 130°20'0 0.0
2018-Apr-15 04:00N 33°38' E 130°20'0 0.0
2018-Apr-15 03:30N 33°38' E 130°20'0 0.0
2018-Apr-15 03:00N 33°38' E 130°20'0 0.0
2018-Apr-15 02:30N 33°38' E 130°20'0 0.0
2018-Apr-15 02:00N 33°38' E 130°20'0 0.0
2018-Apr-15 01:30N 33°38' E 130°20'0 0.0
2018-Apr-15 01:00N 33°38' E 130°20'0 0.0
2018-Apr-15 00:30N 33°38' E 130°20'0 0.1
2018-Apr-15 00:00N 33°38' E 130°20'0 0.1
2018-Apr-14 23:30N 33°38' E 130°20'0 0.0
2018-Apr-14 23:00N 33°38' E 130°20'0 0.0
2018-Apr-14 22:30N 33°38' E 130°20'0 0.0
2018-Apr-14 22:00N 33°38' E 130°20'0 0.0
2018-Apr-14 21:30N 33°38' E 130°20'0 0.1
2018-Apr-14 21:00N 33°38' E 130°20'0 0.0
2018-Apr-14 20:30N 33°38' E 130°20'0 0.0
2018-Apr-14 20:00N 33°38' E 130°20'0 0.0
2018-Apr-14 19:30N 33°38' E 130°20'0 0.0
2018-Apr-14 19:00N 33°38' E 130°20'0 0.0
2018-Apr-14 18:30N 33°38' E 130°20'0 0.0
2018-Apr-14 18:00N 33°38' E 130°20'0 0.2
2018-Apr-14 17:30N 33°38' E 130°20'0 0.0
2018-Apr-14 17:00N 33°38' E 130°20'0 0.0
2018-Apr-14 16:30N 33°38' E 130°20'0 0.0
2018-Apr-14 16:00N 33°38' E 130°20'0 0.0
2018-Apr-14 15:30N 33°38' E 130°20'0 0.0
2018-Apr-14 15:00N 33°38' E 130°20'0 0.0
2018-Apr-14 14:30N 33°38' E 130°20'0 0.1
2018-Apr-14 14:00N 33°38' E 130°20'0 0.0
2018-Apr-14 13:30N 33°38' E 130°20'0 0.0
2018-Apr-14 13:00N 33°38' E 130°20'0 0.0
2018-Apr-14 12:30N 33°38' E 130°20'0 0.0
2018-Apr-14 12:00N 33°38' E 130°20'0 0.1
2018-Apr-14 11:30N 33°38' E 130°20'0 0.0
2018-Apr-14 11:00N 33°38' E 130°20'0 0.0
2018-Apr-14 10:30N 33°38' E 130°20'0 0.0
2018-Apr-14 10:00N 33°38' E 130°20'0 0.1
2018-Apr-14 09:30N 33°38' E 130°20'0 0.0
2018-Apr-14 09:00N 33°38' E 130°20'0 0.0
2018-Apr-14 08:30N 33°38' E 130°20'0 0.1
2018-Apr-14 08:00N 33°38' E 130°20'0 0.0
2018-Apr-14 07:30N 33°38' E 130°20'0 0.1
2018-Apr-14 07:00N 33°38' E 130°20'0 0.1
2018-Apr-14 06:29N 33°38' E 130°20'0 0.1
2018-Apr-14 05:59N 33°38' E 130°20'0 0.1
2018-Apr-14 05:29N 33°38' E 130°20'0 0.1
2018-Apr-14 04:59N 33°38' E 130°20'0 0.0
2018-Apr-14 04:29N 33°38' E 130°20'0 0.1
2018-Apr-14 03:59N 33°38' E 130°20'0 0.0
2018-Apr-14 03:29N 33°38' E 130°20'0 0.0
2018-Apr-14 02:59N 33°38' E 130°20'0 0.1
2018-Apr-14 02:29N 33°38' E 130°20'0 0.0
2018-Apr-14 01:59N 33°38' E 130°20'0 0.0
2018-Apr-14 01:29N 33°38' E 130°20'0 0.0
2018-Apr-14 00:59N 33°38' E 130°20'0 0.0
2018-Apr-14 00:29N 33°38' E 130°20'0 0.0
2018-Apr-13 23:59N 33°38' E 130°20'0 0.0
2018-Apr-13 23:29N 33°38' E 130°20'0 0.1
2018-Apr-13 22:59N 33°38' E 130°20'0 0.1
2018-Apr-13 22:29N 33°38' E 130°20'0 0.0
2018-Apr-13 21:59N 33°38' E 130°20'0 0.0
2018-Apr-13 21:29N 33°38' E 130°20'0 0.1
2018-Apr-13 20:59N 33°38' E 130°20'0 0.0
2018-Apr-13 20:29N 33°38' E 130°20'0 0.1
2018-Apr-13 19:59N 33°38' E 130°20'0 0.0
2018-Apr-13 19:29N 33°38' E 130°20'0 0.0
2018-Apr-13 18:59N 33°38' E 130°20'0 0.0
2018-Apr-13 18:29N 33°38' E 130°20'0 0.0
2018-Apr-13 17:59N 33°38' E 130°20'0 0.0
2018-Apr-13 17:29N 33°38' E 130°20'0 0.0
2018-Apr-13 16:59N 33°38' E 130°20'0 0.1
2018-Apr-13 16:29N 33°38' E 130°20'0 0.1
2018-Apr-13 15:59N 33°38' E 130°20'0 0.0
2018-Apr-13 15:29N 33°38' E 130°20'0 0.0
2018-Apr-13 14:59N 33°38' E 130°20'0 0.1
2018-Apr-13 14:29N 33°38' E 130°20'0 0.0
2018-Apr-13 13:59N 33°38' E 130°20'0 0.0
2018-Apr-13 13:29N 33°38' E 130°20'0 0.1
2018-Apr-13 12:59N 33°38' E 130°20'0 0.1
2018-Apr-13 12:29N 33°38' E 130°20'0 0.1
2018-Apr-13 11:56N 33°38' E 130°20'0 0.0
2018-Apr-13 11:29N 33°38' E 130°20'0 0.2
2018-Apr-13 11:00N 33°38' E 130°20'3 6.4
2018-Apr-13 10:29N 33°37' E 130°24'0 0.1
2018-Apr-13 09:59N 33°37' E 130°24'0 0.0
2018-Apr-13 09:29N 33°37' E 130°24'0 0.0
2018-Apr-13 08:59N 33°37' E 130°24'0 0.0
2018-Apr-13 08:29N 33°37' E 130°24'0 0.0
2018-Apr-13 07:59N 33°37' E 130°24'0 0.0
2018-Apr-13 07:29N 33°37' E 130°24'0 0.0
2018-Apr-13 06:59N 33°37' E 130°24'0 0.0
2018-Apr-13 06:29N 33°37' E 130°24'0 0.0
2018-Apr-13 05:59N 33°37' E 130°24'0 0.0
2018-Apr-13 05:29N 33°37' E 130°24'0 0.0
2018-Apr-13 04:59N 33°37' E 130°24'0 0.0
2018-Apr-13 04:29N 33°37' E 130°24'0 0.1
2018-Apr-13 03:59N 33°37' E 130°24'0 0.1
2018-Apr-13 03:29N 33°37' E 130°24'0 0.0
2018-Apr-13 02:59N 33°37' E 130°24'0 0.0
2018-Apr-13 02:29N 33°37' E 130°24'0 0.0
2018-Apr-13 01:59N 33°37' E 130°24'0 0.0
2018-Apr-13 01:29N 33°37' E 130°24'0 0.0
2018-Apr-13 00:59N 33°37' E 130°24'0 0.0
2018-Apr-13 00:29N 33°37' E 130°24'0 0.1
2018-Apr-12 23:59N 33°37' E 130°24'0 0.1
2018-Apr-12 23:29N 33°37' E 130°24'0 0.0
2018-Apr-12 23:00N 33°37' E 130°24'1 1.4
2018-Apr-12 22:31N 33°37' E 130°23'4 8.5
2018-Apr-12 22:01N 33°39' E 130°19'4 8.8
2018-Apr-12 21:31N 33°42' E 130°15'4 8.5
2018-Apr-12 21:01N 33°45' E 130°12'4 8.9
2018-Apr-12 20:31N 33°49' E 130°09'4 8.0
2018-Apr-12 20:00N 33°52' E 130°11'5 9.4
2018-Apr-12 19:30N 33°55' E 130°16'5 9.4
2018-Apr-12 19:00N 33°58' E 130°21'510.4
2018-Apr-12 18:30N 33°59' E 130°27'611.3
2018-Apr-12 18:00N 33°60' E 130°33'611.7
2018-Apr-12 17:31N 34°02' E 130°40'611.1
2018-Apr-12 17:00N 34°02' E 130°47'510.2
2018-Apr-12 16:30N 34°00' E 130°52'5 9.4
2018-Apr-12 16:00N 33°56' E 130°53'3 5.4
2018-Apr-12 15:30N 33°56' E 130°56'4 7.7
2018-Apr-12 15:00N 33°59' E 130°60'510.3
2018-Apr-12 14:31N 33°56' E 131°05'  
Track history (hours):
 
Tides and Currents Weather Stations Pressure Air Temp Water Temp Dewpoint Dewpoint Depression Visibility Wind Speed Wind Dir Waves Ship Positions

Yoshu Maru No.5

Last reported at 2018-Apr-22 14:21 UTC. Time now 2018-Apr-23 04:00 UTC.
Position N 33°17' E 135°26'.

Length 110 m; draft 7.2 m.

Type: Cargo ship. MMSI: 431400833.

Date/timePositionNaut miles runAvg speedWind from/ knotsBaromVisibWave heightAir tempDewpointWater temp
2018-Apr-22 14:21N 33°17' E 135°26'3212.2
2018-Apr-22 11:41N 33°10' E 134°48'312.0
2018-Apr-22 11:28N 33°10' E 134°45'612.0
2018-Apr-22 10:58N 33°09' E 134°38'1011.7
2018-Apr-22 10:09N 33°07' E 134°27'12110.4
2018-Apr-21 22:31N 33°17' E 132°02'213.4
2018-Apr-21 22:23N 33°18' E 132°01'612.6
2018-Apr-21 21:56N 33°23' E 131°58'613.3
2018-Apr-21 21:30N 33°29' E 131°56'813.4
2018-Apr-21 20:56N 33°36' E 131°53'713.1
2018-Apr-21 20:24N 33°42' E 131°51'512.8
2018-Apr-21 20:00N 33°47' E 131°49'612.6
2018-Apr-21 19:30N 33°53' E 131°46'612.2
2018-Apr-21 19:00N 33°59' E 131°45'5 9.0
2018-Apr-21 18:30N 34°03' E 131°47'0 0.0
2018-Apr-21 17:52N 34°03' E 131°47'0 0.0
2018-Apr-21 16:46N 34°03' E 131°47'0 0.0
2018-Apr-21 16:28N 34°03' E 131°47'0 0.0
2018-Apr-21 15:58N 34°03' E 131°47'0 0.0
2018-Apr-21 15:28N 34°03' E 131°47'0 0.0
2018-Apr-21 14:58N 34°03' E 131°47'0 0.0
2018-Apr-21 14:28N 34°03' E 131°47'0 0.0
2018-Apr-21 13:46N 34°03' E 131°47'0 0.0
2018-Apr-21 13:28N 34°03' E 131°47'0 0.0
2018-Apr-21 12:52N 34°03' E 131°47'0 0.0
2018-Apr-21 12:22N 34°03' E 131°47'0 0.0
2018-Apr-21 11:52N 34°03' E 131°47'0 0.0
2018-Apr-21 11:28N 34°03' E 131°47'0 0.0
2018-Apr-21 10:46N 34°03' E 131°47'0 0.0
2018-Apr-21 10:04N 34°03' E 131°47'0 0.0
2018-Apr-21 09:52N 34°03' E 131°47'0 0.1
2018-Apr-21 09:30N 34°03' E 131°47'1 2.7
2018-Apr-21 09:00N 34°02' E 131°46'1 2.7
2018-Apr-21 08:30N 34°01' E 131°45'1 0.1
2018-Apr-21 01:44N 34°01' E 131°44'2 7.0
2018-Apr-21 01:26N 33°59' E 131°45'713.8
2018-Apr-21 00:56N 33°52' E 131°48'614.2
2018-Apr-21 00:30N 33°47' E 131°51'714.3
2018-Apr-21 00:00N 33°40' E 131°53'713.9
2018-Apr-20 23:30N 33°33' E 131°54'713.9
2018-Apr-20 23:00N 33°26' E 131°56'714.1
2018-Apr-20 22:29N 33°19' E 131°59'1013.3
2018-Apr-20 21:45N 33°11' E 132°06'713.4
2018-Apr-20 21:14N 33°06' E 132°11'513.0
2018-Apr-20 20:51N 33°02' E 132°15'513.1
2018-Apr-20 20:29N 32°58' E 132°18'26312.3
2018-Apr-19 23:10N 34°18' E 137°20'413.4
2018-Apr-19 22:53N 34°19' E 137°24'613.1
2018-Apr-19 22:27N 34°20' E 137°31'2613.0
2018-Apr-19 20:27N 34°27' E 138°01'912.8
2018-Apr-19 19:47N 34°30' E 138°11'513.0
2018-Apr-19 19:25N 34°30' E 138°17'612.8
2018-Apr-19 18:58N 34°30' E 138°23'613.0
2018-Apr-19 18:29N 34°31' E 138°31'1012.5
2018-Apr-19 17:42N 34°32' E 138°43'312.6
2018-Apr-19 17:27N 34°32' E 138°47'612.3
2018-Apr-19 17:00N 34°32' E 138°54'711.6
2018-Apr-19 16:21N 34°36' E 139°01'412.2
2018-Apr-19 16:00N 34°38' E 139°05'811.9
2018-Apr-19 15:22N 34°44' E 139°12'512.4
2018-Apr-19 14:59N 34°47' E 139°16'612.3
2018-Apr-19 14:28N 34°52' E 139°21'611.8
2018-Apr-19 13:57N 34°56' E 139°27'511.8
2018-Apr-19 13:30N 34°59' E 139°32'612.5
2018-Apr-19 13:00N 35°03' E 139°37'712.9
2018-Apr-19 12:30N 35°08' E 139°43'612.6
2018-Apr-19 12:00N 35°13' E 139°47'611.8
2018-Apr-19 11:30N 35°19' E 139°44'612.4
2018-Apr-19 11:01N 35°25' E 139°43'612.7
2018-Apr-19 10:30N 35°29' E 139°49'4 8.7
2018-Apr-19 10:01N 35°30' E 139°44'0 0.1
2018-Apr-19 09:28N 35°30' E 139°44'0 0.0
2018-Apr-19 08:58N 35°30' E 139°44'0 0.0
2018-Apr-19 08:28N 35°30' E 139°44'0 0.0
2018-Apr-19 07:58N 35°30' E 139°44'0 0.0
2018-Apr-19 07:28N 35°30' E 139°44'0 0.0
2018-Apr-19 06:58N 35°30' E 139°44'0 0.0
2018-Apr-19 06:28N 35°30' E 139°44'0 0.0
2018-Apr-19 05:55N 35°30' E 139°44'0 0.0
2018-Apr-19 05:28N 35°30' E 139°44'0 0.0
2018-Apr-19 04:58N 35°30' E 139°44'0 0.0
2018-Apr-19 04:28N 35°30' E 139°44'0 0.0
2018-Apr-19 03:58N 35°30' E 139°44'0 0.0
2018-Apr-19 03:28N 35°30' E 139°44'0 0.0
2018-Apr-19 02:58N 35°30' E 139°44'0 0.0
2018-Apr-19 02:28N 35°30' E 139°44'0 0.0
2018-Apr-19 01:58N 35°30' E 139°44'0 0.0
2018-Apr-19 01:28N 35°30' E 139°44'0 0.0
2018-Apr-19 00:58N 35°30' E 139°44'0 0.0
2018-Apr-19 00:28N 35°30' E 139°44'0 0.0
2018-Apr-18 23:58N 35°30' E 139°44'0 0.0
2018-Apr-18 23:28N 35°30' E 139°44'0 0.7
2018-Apr-18 23:00N 35°30' E 139°44'3 6.2
2018-Apr-18 22:30N 35°27' E 139°44'510.1
2018-Apr-18 22:00N 35°22' E 139°45'5 9.7
2018-Apr-18 21:31N 35°17' E 139°46'510.6
2018-Apr-18 21:01N 35°12' E 139°47'510.6
2018-Apr-18 20:30N 35°06' E 139°46'5 9.7
2018-Apr-18 20:01N 35°03' E 139°42'5 9.9
2018-Apr-18 19:30N 34°59' E 139°39'5 9.7
2018-Apr-18 19:00N 34°55' E 139°35'3 5.5
2018-Apr-18 18:30N 34°53' E 139°37'3 6.6
2018-Apr-18 17:59N 34°49' E 139°36'4 7.9
2018-Apr-18 17:28N 34°50' E 139°31'4 9.0
2018-Apr-18 17:00N 34°50' E 139°26'5 9.6
2018-Apr-18 16:27N 34°50' E 139°20'510.1
2018-Apr-18 15:59N 34°46' E 139°16'710.3
2018-Apr-18 15:18N 34°41' E 139°10'310.0
2018-Apr-18 14:59N 34°39' E 139°07'510.0
2018-Apr-18 14:29N 34°36' E 139°03'5 9.7
2018-Apr-18 14:01N 34°32' E 138°59'4 8.7
2018-Apr-18 13:30N 34°31' E 138°54'5 9.0
2018-Apr-18 12:59N 34°31' E 138°48'611.3
2018-Apr-18 12:28N 34°31' E 138°41'611.6
2018-Apr-18 11:58N 34°31' E 138°34'911.2
2018-Apr-18 11:11N 34°31' E 138°23'211.1
2018-Apr-18 11:00N 34°31' E 138°21'510.9
2018-Apr-18 10:30N 34°31' E 138°14'31510.2
2018-Apr-17 03:37N 33°10' E 132°07'814.7
2018-Apr-17 03:06N 33°16' E 132°02'216.3
2018-Apr-17 02:57N 33°18' E 131°60'714.1
2018-Apr-17 02:29N 33°25' E 131°57'613.1
2018-Apr-17 02:00N 33°31' E 131°55'612.3
2018-Apr-17 01:30N 33°36' E 131°51'612.0
2018-Apr-17 01:00N 33°41' E 131°49'612.1
2018-Apr-17 00:31N 33°47' E 131°47'612.0
2018-Apr-17 00:01N 33°53' E 131°46'611.8
2018-Apr-16 23:29N 33°59' E 131°45'2 3.0
2018-Apr-16 22:57N 34°01' E 131°45'0 0.0
2018-Apr-16 22:30N 34°01' E 131°45'0 0.0
2018-Apr-16 21:54N 34°01' E 131°45'0 0.0
2018-Apr-16 21:30N 34°01' E 131°45'0 0.0
2018-Apr-16 21:00N 34°01' E 131°45'0 0.0
2018-Apr-16 20:00N 34°01' E 131°45'0 0.4
2018-Apr-16 19:31N 34°01' E 131°45'3 5.3
2018-Apr-16 19:00N 34°03' E 131°47'0 0.0
2018-Apr-16 17:00N 34°03' E 131°47'0 0.0
2018-Apr-16 16:30N 34°03' E 131°47'0 0.0
2018-Apr-16 16:00N 34°03' E 131°47'0 0.0
2018-Apr-16 15:24N 34°03' E 131°47'0 0.0
2018-Apr-16 14:54N 34°03' E 131°47'0 0.0
2018-Apr-16 14:30N 34°03' E 131°47'0 0.0
2018-Apr-16 14:00N 34°03' E 131°47'0 0.0
2018-Apr-16 13:18N 34°03' E 131°47'0 0.0
2018-Apr-16 13:00N 34°03' E 131°47'0 0.0
2018-Apr-16 12:30N 34°03' E 131°47'0 0.0
2018-Apr-16 12:00N 34°03' E 131°47'0 0.0
2018-Apr-16 11:18N 34°03' E 131°47'0 0.0
2018-Apr-16 11:00N 34°03' E 131°47'0 0.0
2018-Apr-16 10:30N 34°03' E 131°47'0 0.0
2018-Apr-16 09:54N 34°03' E 131°47'0 0.0
2018-Apr-16 09:30N 34°03' E 131°47'0 0.0
2018-Apr-16 09:00N 34°03' E 131°47'0 0.0
2018-Apr-16 08:30N 34°03' E 131°47'0 0.4
2018-Apr-16 08:00N 34°03' E 131°47'4 8.0
2018-Apr-16 07:30N 33°59' E 131°45'611.9
2018-Apr-16 07:00N 33°54' E 131°45'612.0
2018-Apr-16 06:30N 33°48' E 131°46'4 8.6
2018-Apr-16 06:00N 33°46' E 131°41'612.3
2018-Apr-16 05:30N 33°48' E 131°33'612.4
2018-Apr-16 05:00N 33°49' E 131°26'612.6
2018-Apr-16 04:30N 33°50' E 131°19'612.4
2018-Apr-16 04:00N 33°52' E 131°11'612.5
2018-Apr-16 03:29N 33°55' E 131°05'611.5
2018-Apr-16 03:00N 33°58' E 130°59'4 8.4
2018-Apr-16 02:30N 33°55' E 130°56'4 7.4
2018-Apr-16 02:00N 33°57' E 130°52'612.2
2018-Apr-16 01:30N 34°02' E 130°48'713.3
2018-Apr-16 01:01N 34°01' E 130°40'713.8
2018-Apr-16 00:30N 33°59' E 130°33'713.7
2018-Apr-16 00:00N 33°56' E 130°25'613.0
2018-Apr-15 23:30N 33°51' E 130°20'713.7
2018-Apr-15 23:00N 33°45' E 130°17'611.4
2018-Apr-15 22:30N 33°39' E 130°18'2 4.6
2018-Apr-15 22:00N 33°38' E 130°20'0 0.0
2018-Apr-15 21:30N 33°38' E 130°20'0 0.0
2018-Apr-15 21:00N 33°38' E 130°20'0 0.0
2018-Apr-15 20:30N 33°38' E 130°20'0 0.0
2018-Apr-15 20:00N 33°38' E 130°20'0 0.0
2018-Apr-15 19:30N 33°38' E 130°20'0 0.1
2018-Apr-15 19:00N 33°38' E 130°20'0 0.1
2018-Apr-15 18:30N 33°38' E 130°20'0 0.0
2018-Apr-15 18:00N 33°38' E 130°20'0 0.1
2018-Apr-15 17:30N 33°38' E 130°20'0 0.0
2018-Apr-15 17:00N 33°38' E 130°20'0 0.0
2018-Apr-15 16:30N 33°38' E 130°20'0 0.0
2018-Apr-15 16:00N 33°38' E 130°20'0 0.0
2018-Apr-15 15:30N 33°38' E 130°20'0 0.0
2018-Apr-15 15:00N 33°38' E 130°20'0 0.0
2018-Apr-15 14:30N 33°38' E 130°20'0 0.1
2018-Apr-15 14:00N 33°38' E 130°20'0 0.0
2018-Apr-15 13:30N 33°38' E 130°20'0 0.0
2018-Apr-15 13:00N 33°38' E 130°20'0 0.0
2018-Apr-15 12:30N 33°38' E 130°20'0 0.1
2018-Apr-15 12:00N 33°38' E 130°20'0 0.0
2018-Apr-15 11:30N 33°38' E 130°20'0 0.0
2018-Apr-15 11:00N 33°38' E 130°20'0 0.0
2018-Apr-15 10:27N 33°38' E 130°20'0 0.0
2018-Apr-15 10:00N 33°38' E 130°20'0 0.0
2018-Apr-15 09:30N 33°38' E 130°20'0 0.0
2018-Apr-15 09:00N 33°38' E 130°20'0 0.0
2018-Apr-15 08:30N 33°38' E 130°20'0 0.0
2018-Apr-15 08:00N 33°38' E 130°20'0 0.0
2018-Apr-15 07:27N 33°38' E 130°20'0 0.0
2018-Apr-15 07:00N 33°38' E 130°20'0 0.0
2018-Apr-15 06:24N 33°38' E 130°20'0 0.0
2018-Apr-15 06:00N 33°38' E 130°20'0 0.0
2018-Apr-15 05:30N 33°38' E 130°20'0 0.1
2018-Apr-15 05:00N 33°38' E 130°20'0 0.1
2018-Apr-15 04:30N 33°38' E 130°20'0 0.0
2018-Apr-15 04:00N 33°38' E 130°20'0 0.0
2018-Apr-15 03:30N 33°38' E 130°20'0 0.0
2018-Apr-15 03:00N 33°38' E 130°20'0 0.0
2018-Apr-15 02:30N 33°38' E 130°20'0 0.0
2018-Apr-15 02:00N 33°38' E 130°20'0 0.0
2018-Apr-15 01:30N 33°38' E 130°20'0 0.0
2018-Apr-15 01:00N 33°38' E 130°20'0 0.0
2018-Apr-15 00:30N 33°38' E 130°20'0 0.1
2018-Apr-15 00:00N 33°38' E 130°20'0 0.1
2018-Apr-14 23:30N 33°38' E 130°20'0 0.0
2018-Apr-14 23:00N 33°38' E 130°20'0 0.0
2018-Apr-14 22:30N 33°38' E 130°20'0 0.0
2018-Apr-14 22:00N 33°38' E 130°20'0 0.0
2018-Apr-14 21:30N 33°38' E 130°20'0 0.1
2018-Apr-14 21:00N 33°38' E 130°20'0 0.0
2018-Apr-14 20:30N 33°38' E 130°20'0 0.0
2018-Apr-14 20:00N 33°38' E 130°20'0 0.0
2018-Apr-14 19:30N 33°38' E 130°20'0 0.0
2018-Apr-14 19:00N 33°38' E 130°20'0 0.0
2018-Apr-14 18:30N 33°38' E 130°20'0 0.0
2018-Apr-14 18:00N 33°38' E 130°20'0 0.2
2018-Apr-14 17:30N 33°38' E 130°20'0 0.0
2018-Apr-14 17:00N 33°38' E 130°20'0 0.0
2018-Apr-14 16:30N 33°38' E 130°20'0 0.0
2018-Apr-14 16:00N 33°38' E 130°20'0 0.0
2018-Apr-14 15:30N 33°38' E 130°20'0 0.0
2018-Apr-14 15:00N 33°38' E 130°20'0 0.0
2018-Apr-14 14:30N 33°38' E 130°20'0 0.1
2018-Apr-14 14:00N 33°38' E 130°20'0 0.0
2018-Apr-14 13:30N 33°38' E 130°20'0 0.0
2018-Apr-14 13:00N 33°38' E 130°20'0 0.0
2018-Apr-14 12:30N 33°38' E 130°20'0 0.0
2018-Apr-14 12:00N 33°38' E 130°20'0 0.1
2018-Apr-14 11:30N 33°38' E 130°20'0 0.0
2018-Apr-14 11:00N 33°38' E 130°20'0 0.0
2018-Apr-14 10:30N 33°38' E 130°20'0 0.0
2018-Apr-14 10:00N 33°38' E 130°20'0 0.1
2018-Apr-14 09:30N 33°38' E 130°20'0 0.0
2018-Apr-14 09:00N 33°38' E 130°20'0 0.0
2018-Apr-14 08:30N 33°38' E 130°20'0 0.1
2018-Apr-14 08:00N 33°38' E 130°20'0 0.0
2018-Apr-14 07:30N 33°38' E 130°20'0 0.1
2018-Apr-14 07:00N 33°38' E 130°20'0 0.1
2018-Apr-14 06:29N 33°38' E 130°20'0 0.1
2018-Apr-14 05:59N 33°38' E 130°20'0 0.1
2018-Apr-14 05:29N 33°38' E 130°20'0 0.1
2018-Apr-14 04:59N 33°38' E 130°20'0 0.0
2018-Apr-14 04:29N 33°38' E 130°20'0 0.1
2018-Apr-14 03:59N 33°38' E 130°20'0 0.0
2018-Apr-14 03:29N 33°38' E 130°20'0 0.0
2018-Apr-14 02:59N 33°38' E 130°20'0 0.1
2018-Apr-14 02:29N 33°38' E 130°20'0 0.0
2018-Apr-14 01:59N 33°38' E 130°20'0 0.0
2018-Apr-14 01:29N 33°38' E 130°20'0 0.0
2018-Apr-14 00:59N 33°38' E 130°20'0 0.0
2018-Apr-14 00:29N 33°38' E 130°20'0 0.0
2018-Apr-13 23:59N 33°38' E 130°20'0 0.0
2018-Apr-13 23:29N 33°38' E 130°20'0 0.1
2018-Apr-13 22:59N 33°38' E 130°20'0 0.1
2018-Apr-13 22:29N 33°38' E 130°20'0 0.0
2018-Apr-13 21:59N 33°38' E 130°20'0 0.0
2018-Apr-13 21:29N 33°38' E 130°20'0 0.1
2018-Apr-13 20:59N 33°38' E 130°20'0 0.0
2018-Apr-13 20:29N 33°38' E 130°20'0 0.1
2018-Apr-13 19:59N 33°38' E 130°20'0 0.0
2018-Apr-13 19:29N 33°38' E 130°20'0 0.0
2018-Apr-13 18:59N 33°38' E 130°20'0 0.0
2018-Apr-13 18:29N 33°38' E 130°20'0 0.0
2018-Apr-13 17:59N 33°38' E 130°20'0 0.0
2018-Apr-13 17:29N 33°38' E 130°20'0 0.0
2018-Apr-13 16:59N 33°38' E 130°20'0 0.1
2018-Apr-13 16:29N 33°38' E 130°20'0 0.1
2018-Apr-13 15:59N 33°38' E 130°20'0 0.0
2018-Apr-13 15:29N 33°38' E 130°20'0 0.0
2018-Apr-13 14:59N 33°38' E 130°20'0 0.1
2018-Apr-13 14:29N 33°38' E 130°20'0 0.0
2018-Apr-13 13:59N 33°38' E 130°20'0 0.0
2018-Apr-13 13:29N 33°38' E 130°20'0 0.1
2018-Apr-13 12:59N 33°38' E 130°20'0 0.1
2018-Apr-13 12:29N 33°38' E 130°20'0 0.1
2018-Apr-13 11:56N 33°38' E 130°20'0 0.0
2018-Apr-13 11:29N 33°38' E 130°20'0 0.2
2018-Apr-13 11:00N 33°38' E 130°20'3 6.4
2018-Apr-13 10:29N 33°37' E 130°24'0 0.1
2018-Apr-13 09:59N 33°37' E 130°24'0 0.0
2018-Apr-13 09:29N 33°37' E 130°24'0 0.0
2018-Apr-13 08:59N 33°37' E 130°24'0 0.0
2018-Apr-13 08:29N 33°37' E 130°24'0 0.0
2018-Apr-13 07:59N 33°37' E 130°24'0 0.0
2018-Apr-13 07:29N 33°37' E 130°24'0 0.0
2018-Apr-13 06:59N 33°37' E 130°24'0 0.0
2018-Apr-13 06:29N 33°37' E 130°24'0 0.0
2018-Apr-13 05:59N 33°37' E 130°24'0 0.0
2018-Apr-13 05:29N 33°37' E 130°24'0 0.0
2018-Apr-13 04:59N 33°37' E 130°24'0 0.0
2018-Apr-13 04:29N 33°37' E 130°24'0 0.1
2018-Apr-13 03:59N 33°37' E 130°24'0 0.1
2018-Apr-13 03:29N 33°37' E 130°24'0 0.0
2018-Apr-13 02:59N 33°37' E 130°24'0 0.0
2018-Apr-13 02:29N 33°37' E 130°24'0 0.0
2018-Apr-13 01:59N 33°37' E 130°24'0 0.0
2018-Apr-13 01:29N 33°37' E 130°24'0 0.0
2018-Apr-13 00:59N 33°37' E 130°24'0 0.0
2018-Apr-13 00:29N 33°37' E 130°24'0 0.1
2018-Apr-12 23:59N 33°37' E 130°24'0 0.1
2018-Apr-12 23:29N 33°37' E 130°24'0 0.0
2018-Apr-12 23:00N 33°37' E 130°24'1 1.4
2018-Apr-12 22:31N 33°37' E 130°23'4 8.5
2018-Apr-12 22:01N 33°39' E 130°19'4 8.8
2018-Apr-12 21:31N 33°42' E 130°15'4 8.5
2018-Apr-12 21:01N 33°45' E 130°12'4 8.9
2018-Apr-12 20:31N 33°49' E 130°09'4 8.0
2018-Apr-12 20:00N 33°52' E 130°11'5 9.4
2018-Apr-12 19:30N 33°55' E 130°16'5 9.4
2018-Apr-12 19:00N 33°58' E 130°21'510.4
2018-Apr-12 18:30N 33°59' E 130°27'611.3
2018-Apr-12 18:00N 33°60' E 130°33'611.7
2018-Apr-12 17:31N 34°02' E 130°40'611.1
2018-Apr-12 17:00N 34°02' E 130°47'510.2
2018-Apr-12 16:30N 34°00' E 130°52'5 9.4
2018-Apr-12 16:00N 33°56' E 130°53'3 5.4
2018-Apr-12 15:30N 33°56' E 130°56'4 7.7
2018-Apr-12 15:00N 33°59' E 130°60'510.3
2018-Apr-12 14:31N 33°56' E 131°05'  

Dump ship's entire track history